Tiempo atmosférico en la estación meteorológica de Adra,club Naútico, Almería (8 m.)



Fecha
DESCASC
Temp. máxima en grados centígrados (hora)
DESCASC
Temp. mínima en grados centígrados (hora)
DESCASC
Temp. media en grados centígrados
DESCASC
Racha de viento máxima en m/sg (hora)
DESCASC
Velocidad máxima media en intervalos de 10 minutos(hora)
DESCASC
Precipitaciones diarias en mm
DESCASC
Precipitaciones de 00:00 a 06:00 en mm
DESCASC
Precipitaciones de 06:00 a 12:00 en mm
DESCASC
Precipitaciones de 12:00 a 18:00 en mm
DESCASC
Precipitaciones de 18:00 a 24:00 en mm
DESCASC

Gráficas

Temp. máximas Temp. mínimas Temp. medias Precipitaciones Rachas de viento máximas Velocidades máximas media en intervalos de 10 minutos

Datos horarios

Fecha y hora oficial Temperatura (ºC) Velocidad del viento (km/h) Dirección del viento Racha (km/h) Dirección de racha Precipitación (mm) Presión (hPa) Tendencia (hPa) Humedad (%)
2019-12-10 23:00:00 13.7 4 Norte 9 Noroeste 0 1025.1 -0.2 91
2019-12-10 22:00:00 13.7 2 Noroeste 7 Noroeste 0 1025.2 0 88
2019-12-10 21:00:00 14.2 2 Noroeste 6 Norte 0 1025.3 0.4 88
2019-12-10 20:00:00 14.7 4 Noroeste 12 Oeste 0 1025.3 1 91
2019-12-10 19:00:00 15.4 5 Oeste 22 Oeste 0 1025.2 1.2 89
2019-12-10 18:00:00 15.9 13 Oeste 21 Oeste 0 1024.9 0.7 88
2019-12-10 17:00:00 17.1 7 Sudoeste 14 Sudoeste 0 1024.3 -0.8 87
2019-12-10 16:00:00 17.1 9 Sudoeste 24 Sudoeste 0 1024 -1.9 87
2019-12-10 15:00:00 16.8 14 Oeste 23 Sudoeste 0 1024.2 -2.4 89
2019-12-10 14:00:00 16.9 15 Oeste 21 Oeste 0 1025.1 -1.4 77
2019-12-10 13:00:00 17.9 9 Sudoeste 14 Sudoeste 0 1025.9 -0.9 65
2019-12-10 12:00:00 18 6 Sudoeste 10 Oeste 0 1026.6 -0.9 56
2019-12-10 11:00:00 18.5 4 Oeste 11 Este 0 1026.5 -0.8 43
2019-12-10 10:00:00 16.7 4 Nordeste 13 Este 0 1026.8 -0.6 43
2019-12-10 09:00:00 14.1 3 Nordeste 11 Nordeste 0 1027.5 0.3 56
2019-12-10 08:00:00 13.1 5 Este 12 Este 0 1027.3 0 58
2019-12-10 07:00:00 12.6 3 Nordeste 7 Este 0 1027.4 -0.3 65
2019-12-10 06:00:00 14.4 3 Noroeste 14 Este 0 1027.2 0.1 57
2019-12-10 05:00:00 12.8 2 Este 10 Este 0 1027.3 0.1 67
2019-12-10 04:00:00 13.1 2 Este 19 Este 0 1027.7 0 71
2019-12-10 03:00:00 14.1 9 Este 19 Este 0 1027.1 -0.7 71
2019-12-10 02:00:00 14 2 Norte 5 Norte 0 1027.2 -0.5 93
2019-12-10 01:00:00 14.8 3 Norte 6 Norte 0 1027.7 0 92
2019-12-10 00:00:00 14.8 2 Norte 6 Norte 0 1027.8 0.4 87
2019-12-09 23:00:00 14.3 3 Norte 6 Norte 0 1027.7 0.5 85
2019-12-09 22:00:00 14.8 3 Norte 5 Norte 0 1027.7 0.9 84
2019-12-09 21:00:00 15.1 0 Calma 6 Norte 0 1027.4 1.1 89
2019-12-09 20:00:00 15.6 3 Oeste 9 Oeste 0 1027.2 1.2 93
2019-12-09 19:00:00 16.3 3 Oeste 8 Oeste 0 1026.8 1.6 90
2019-12-09 18:00:00 17.2 6 Sudoeste 13 Oeste 0 1026.3 2.4 80
2019-12-09 17:00:00 17.5 7 Sudoeste 15 Oeste 0 1026 -0.3 83
2019-12-09 16:00:00 18.9 5 Sudoeste 12 Sudoeste 0 1025.2 -1.2 71
2019-12-09 15:00:00 20.9 3 Sudoeste 8 Sudoeste 0 1023.9 -3.6 63
2019-12-09 14:00:00 19.1 2 Sudoeste 8 Sudoeste 0 1026.3 0 66
2019-12-09 13:00:00 19.4 2 Sudoeste 12 Sudoeste 0 1026.4 0.3 75
2019-12-09 12:00:00 17.9 8 Sudoeste 13 Sudoeste 0 1027.5 1.2 82
2019-12-09 11:00:00 19 2 Oeste 10 Oeste 0 1026.3 0.1 71
2019-12-09 10:00:00 17.6 5 Oeste 9 Oeste 0 1026.1 0.5 72
2019-12-09 09:00:00 15.1 2 Nordeste 9 Oeste 0 1026.3 1 65
2019-12-09 08:00:00 14.7 5 Noroeste 10 Oeste 0 1026.2 1.1 67
2019-12-09 07:00:00 13.8 4 Norte 12 Oeste 0 1025.6 0.8 73
2019-12-09 06:00:00 13.9 4 Nordeste 7 Norte 0 1025.3 0.3 78
2019-12-09 05:00:00 14.4 4 Noroeste 9 Noroeste 0 1025.1 0.2 75
2019-12-09 04:00:00 14.9 5 Noroeste 13 Norte 0 1024.8 -0.4 69
2019-12-09 03:00:00 13.8 3 Norte 8 Nordeste 0 1025 -0.2 83
2019-12-09 02:00:00 13.9 0 Calma 8 Nordeste 0 1024.9 -0.1 82
2019-12-09 01:00:00 14.3 2 Norte 10 Noroeste 0 1025.2 0.1 86
2019-12-09 00:00:00 14.6 4 Nordeste 16 Este 0 1025.2 0 77
2019-12-08 23:00:00 14.5 2 Nordeste 19 Este 0 1025 -0.3 79
2019-12-08 22:00:00 14.8 7 Este 17 Este 0 1025.1 0.1 83
2019-12-08 21:00:00 14.8 3 Nordeste 6 Este 0 1025.2 0.4 90
2019-12-08 20:00:00 14.8 2 Norte 5 Norte 0 1025.3 1 89
2019-12-08 19:00:00 14.7 4 Norte 17 Sudoeste 0 1025 0.9 89
2019-12-08 18:00:00 15.5 12 Oeste 24 Oeste 0 1024.8 1 89
2019-12-08 17:00:00 15.8 16 Oeste 25 Oeste 0 1024.3 -0.1 86
2019-12-08 16:00:00 16 17 Oeste 30 Oeste 0 1024.1 -1.2 84
2019-12-08 15:00:00 16 17 Oeste 29 Sudoeste 0 1023.8 -2.5 82
2019-12-08 14:00:00 16.4 15 Sudoeste 25 Sudoeste 0 1024.4 -2.2 79
2019-12-08 13:00:00 16.4 12 Sudoeste 23 Sudoeste 0 1025.3 -0.1 77
2019-12-08 12:00:00 16.2 11 Sudoeste 18 Sudoeste 0 1026.3 0.2 76
2019-12-08 11:00:00 16.1 10 Oeste 16 Sudoeste 0 1026.6 0.4 75
2019-12-08 10:00:00 16.4 0 Calma 5 Norte 0 1025.4 -0.4 75
2019-12-08 09:00:00 13.4 3 Norte 5 Norte 0 1026.1 0.6 87
2019-12-08 08:00:00 12.6 2 Nordeste 6 Noroeste 0 1026.2 0.8 88
2019-12-08 07:00:00 12.5 2 Nordeste 7 Norte 0 1025.8 -0.1 84
2019-12-08 06:00:00 12.9 4 Norte 6 Norte 0 1025.5 -0.7 87
2019-12-08 05:00:00 12.6 4 Norte 7 Noroeste 0 1025.4 -0.9 87
2019-12-08 04:00:00 12.8 0 Calma 4 Norte 0 1025.9 -0.4 88
2019-12-08 03:00:00 13.1 0 Calma 4 Norte 0 1026.2 -0.2 89
2019-12-08 02:00:00 13.4 0 Calma 4 Oeste 0 1026.3 0 89
2019-12-08 01:00:00 14.3 0 Calma 6 Norte 0 1026.3 0.3 88
2019-12-08 00:00:00 14.7 0 Calma 10 Sudoeste 0 1026.4 1 89
2019-12-07 23:00:00 15.3 7 Sudoeste 17 Sudoeste 0 1026.3 1.5 90
2019-12-07 22:00:00 15.4 9 Sudoeste 17 Oeste 0 1026 2 89
2019-12-07 21:00:00 15.4 12 Oeste 23 Oeste 0 1025.4 1.8 89
2019-12-07 20:00:00 15.5 14 Oeste 23 Oeste 0 1024.8 1.9 88
2019-12-07 19:00:00 15.5 15 Oeste 23 Oeste 0 1024 1.5 88
2019-12-07 18:00:00 15.7 14 Oeste 55 Sudoeste 0 1023.6 1.1 86
2019-12-07 17:00:00 16.1 17 Oeste 27 Sudoeste 0 1022.9 0.9 84
2019-12-07 16:00:00 16.1 14 Oeste 28 Oeste 0 1022.5 -0.1 85
2019-12-07 15:00:00 16.4 15 Sudoeste 29 Oeste 0 1022.5 -0.9 81
2019-12-07 14:00:00 16.7 19 Oeste 31 Oeste 0 1022 -1.6 81
2019-12-07 13:00:00 16.8 20 Oeste 31 Oeste 0 1022.6 -0.6 79
2019-12-07 12:00:00 16.8 15 Sudoeste 26 Sudoeste 0 1023.4 0.4 77
2019-12-07 11:00:00 16.5 16 Oeste 25 Oeste 0 1023.6 1.3 81
2019-12-07 10:00:00 16.4 13 Oeste 20 Oeste 0 1023.2 1.6 82
2019-12-07 09:00:00 15.8 4 Oeste 12 Oeste 0 1023 1.9 72
2019-12-07 08:00:00 14.9 0 Calma 6 Norte 0 1022.3 1.6 66
2019-12-07 07:00:00 15.4 2 Norte 6 Norte 0 1021.6 0.9 64
2019-12-07 06:00:00 15.4 0 Calma 5 Nordeste 0 1021.1 0.1 66
2019-12-07 05:00:00 15.9 0 Calma 9 Norte 0 1020.7 -0.3 66
2019-12-07 04:00:00 16.6 4 Noroeste 12 Noroeste 0 1020.7 -0.5 61
2019-12-07 03:00:00 16.5 3 Noroeste 15 Norte 0 1021 -0.3 55
2019-12-07 02:00:00 16.5 6 Nordeste 13 Norte 0 1021 -0.2 55
2019-12-07 01:00:00 16.4 0 Calma 10 Oeste 0 1021.2 0.7 59
2019-12-07 00:00:00 15.9 0 Calma 7 Nordeste 0 1021.3 0.6 62
2019-12-06 23:00:00 16.4 2 Este 5 Sudeste 0 1021.2 0.9 62
2019-12-06 22:00:00 16.6 2 Este 14 Este 0 1020.5 0.7 62
2019-12-06 21:00:00 16.5 6 Este 20 Este 0 1020.7 1.5 62
2019-12-06 20:00:00 16.7 6 Este 24 Este 0 1020.3 1.9 64
2019-12-06 19:00:00 16.6 6 Este 27 Sudeste 0 1019.8 2.6 65
2019-12-06 18:00:00 16.7 13 Este 29 Este 0 1019.2 2.3 66
2019-12-06 17:00:00 17.7 8 Este 27 Este 0 1018.4 1 64
2019-12-06 16:00:00 18.8 10 Este 27 Este 0 1017.2 -0.9 60
2019-12-06 15:00:00 18.7 10 Este 28 Este 0 1016.9 -1.7 61
2019-12-06 14:00:00 19.5 14 Sudeste 28 Sudeste 0 1017.4 -1.5 54
2019-12-06 13:00:00 19.6 9 Sudeste 21 Este 0 1018.1 -0.8 51
2019-12-06 12:00:00 20.4 8 Este 24 Este 0 1018.6 -0.3 43
2019-12-06 11:00:00 19.3 7 Este 26 Norte 0 1018.9 -0.2 48
2019-12-06 10:00:00 17.2 9 Nordeste 23 Norte 0 1018.9 0.9 51
2019-12-06 09:00:00 15.8 9 Este 21 Este 0 1018.9 1.6 56
2019-12-06 08:00:00 14.7 9 Este 19 Este 0 1019.1 1.9 59
2019-12-06 07:00:00 16 5 Nordeste 23 Sudeste 0 1018 0.7 54
2019-12-06 06:00:00 16.5 8 Nordeste 27 Norte 0 1017.3 0.6 54
2019-12-06 05:00:00 16.4 7 Nordeste 21 Norte 0 1017.2 0.4 54
2019-12-06 04:00:00 16.2 7 Nordeste 26 Este 0 1017.3 0.3 55
2019-12-06 03:00:00 16.4 7 Nordeste 24 Nordeste 0 1016.7 -0.8 55
2019-12-06 02:00:00 16.3 7 Nordeste 26 Norte 0 1016.8 -0.7 55
2019-12-06 01:00:00 16 7 Nordeste 27 Nordeste 0 1017 -0.3 58
2019-12-06 00:00:00 16.1 11 Norte 25 Norte 0 1017.5 0.3 58
2019-12-05 23:00:00 16 8 Nordeste 21 Nordeste 0 1017.5 0.6 58
2019-12-05 22:00:00 15.6 7 Nordeste 22 Norte 0 1017.3 1.2 60
2019-12-05 21:00:00 15.4 6 Nordeste 18 Nordeste 0 1017.2 1.6 64
2019-12-05 20:00:00 15.3 5 Nordeste 18 Este 0 1016.9 1.5 66
2019-12-05 19:00:00 15.3 3 Nordeste 15 Este 0 1016.1 1.5 71
2019-12-05 18:00:00 15.9 9 Este 21 Nordeste 0 1015.6 2.4 69
2019-12-05 17:00:00 16.2 8 Este 22 Este 0 1015.4 1.1 69
2019-12-05 16:00:00 16.8 10 Este 27 Este 0 1014.6 -0.5 65
2019-12-05 15:00:00 17.7 12 Este 24 Sudeste 0 1013.2 -2.3 62
2019-12-05 14:00:00 16.6 12 Este 23 Este 0 1014.3 -1.7 64
2019-12-05 13:00:00 17 10 Este 22 Este 0 1015.1 -0.5 61
2019-12-05 12:00:00 17.1 6 Este 17 Este 0 1015.5 1.3 61
2019-12-05 11:00:00 15.8 3 Nordeste 15 Nordeste 0 1016 2.5 66
2019-12-05 10:00:00 13.9 9 Este 18 Norte 0 1015.6 2.6 62
2019-12-05 09:00:00 13.6 9 Norte 19 Norte 0 1014.2 2 60
2019-12-05 08:00:00 13.7 8 Norte 17 Norte 0 1013.5 1.5 61
2019-12-05 07:00:00 13.6 7 Nordeste 18 Norte 0 1013 1.1 64
2019-12-05 06:00:00 13.5 9 Norte 21 Norte 0 1012.2 0.9 66
2019-12-05 05:00:00 13.5 6 Nordeste 17 Norte 0 1012 0.5 67
2019-12-05 04:00:00 13.8 6 Nordeste 18 Norte 0 1011.9 0.6 67
2019-12-05 03:00:00 13 5 Nordeste 11 Este 0 1011.3 0.4 75
2019-12-05 02:00:00 12.6 4 Norte 6 Nordeste 0 1011.5 1.1 82
2019-12-05 01:00:00 12.8 3 Norte 6 Norte 0 1011.3 1.6 80
2019-12-05 00:00:00 13.4 3 Norte 8 Este 0 1010.9 1.7 79
2019-12-04 23:00:00 14 0 Calma 7 Norte 0 1010.4 1.9 78
2019-12-04 22:00:00 14.1 3 Norte 12 Nordeste 0 1009.7 1.8 75
2019-12-04 21:00:00 14.4 3 Nordeste 12 Oeste 0 1009.2 1.8 77
2019-12-04 20:00:00 14.5 3 Noroeste 28 Oeste 0 1008.5 2 76
2019-12-04 19:00:00 15.3 18 Oeste 48 Oeste 0 1007.9 2.1 77
2019-12-04 18:00:00 15.5 26 Oeste 46 Oeste 0 1007.4 2.3 80
2019-12-04 17:00:00 16.4 22 Oeste 39 Oeste 0 1006.5 0.9 76
2019-12-04 16:00:00 15.8 22 Oeste 42 Sudoeste 0 1005.8 -0.6 81
2019-12-04 15:00:00 16.2 25 Oeste 44 Oeste 0 1005.1 -1.4 78
2019-12-04 14:00:00 16.8 25 Oeste 41 Oeste 0 1005.6 -0.8 72
2019-12-04 13:00:00 17.1 15 Oeste 28 Oeste 0 1006.4 -0.5 64
2019-12-04 12:00:00 18.2 5 Sudoeste 10 Sudoeste 0 1006.5 -0.3 52
2019-12-04 11:00:00 18.8 2 Sudoeste 10 Sudoeste 0 1006.4 -0.8 51
2019-12-04 10:00:00 15.9 7 Oeste 14 Oeste 0 1006.9 -0.2 64
2019-12-04 09:00:00 14.6 4 Norte 14 Nordeste 0 1006.8 -0.5 62
2019-12-04 08:00:00 12 4 Norte 8 Norte 0 1007.2 -0.5 77
2019-12-04 07:00:00 12.3 3 Nordeste 15 Norte 0 1007.1 -1.4 77
2019-12-04 06:00:00 12.1 0 Calma 12 Nordeste 0 1007.3 -2 77
2019-12-04 05:00:00 12.6 4 Norte 12 Nordeste 0 1007.7 -2.2 76
2019-12-04 04:00:00 12 2 Norte 6 Norte 0 1008.5 -2 87
2019-12-04 03:00:00 12.5 3 Norte 7 Norte 0 1009.3 -1.6 86
2019-12-04 02:00:00 12.6 0 Calma 5 Nordeste 0 1009.9 -1 87
2019-12-04 01:00:00 13.4 4 Norte 6 Norte 0 1010.5 -0.1 84
2019-12-04 00:00:00 13.7 0 Calma 6 Este 0 1010.9 0.6 83
2019-12-03 23:00:00 13.8 0 Calma 4 Nordeste 0 1010.9 1.2 83
2019-12-03 22:00:00 14.2 0 Calma 5 Noroeste 0 1010.6 0.9 76
2019-12-03 21:00:00 14.3 0 Calma 12 Oeste 0 1010.3 1 76
2019-12-03 20:00:00 14.8 8 Oeste 22 Oeste 0 1009.7 0.9 71
2019-12-03 19:00:00 14.1 8 Oeste 27 Oeste 0 1009.7 1.5 80
2019-12-03 18:00:00 14 0 Calma 21 Oeste 0 1009.3 2.7 78
2019-12-03 17:00:00 14.2 7 Noroeste 17 Noroeste 0 1008.8 1.1 80
2019-12-03 16:00:00 15.7 3 Noroeste 21 Nordeste 0 1008.2 -1.3 61
2019-12-03 15:00:00 17.8 7 Norte 19 Norte 0 1006.6 -2.9 49
2019-12-03 14:00:00 15.3 2 Nordeste 18 Noroeste 0 1007.7 -2.3 69
2019-12-03 13:00:00 14.4 7 Nordeste 26 Este 0 1009.5 -0.1 71
2019-12-03 12:00:00 14.4 4 Sudoeste 26 Sudoeste 0 1009.5 -1.2 83
2019-12-03 11:00:00 14 3 Oeste 13 Oeste 0 1010 0.4 84
2019-12-03 10:00:00 13.8 4 Noroeste 18 Norte 3.4 1009.6 1 82
2019-12-03 09:00:00 13.5 7 Norte 18 Norte 1.6 1010.7 2.2 82
2019-12-03 08:00:00 14.5 3 Noroeste 13 Sudoeste 0 1009.6 -0.1 88
2019-12-03 07:00:00 13.9 0 Calma 7 Norte 0 1008.6 -1.2 91
2019-12-03 06:00:00 13.6 0 Calma 7 Norte 0 1008.5 -2.4 91
2019-12-03 05:00:00 13.4 3 Noroeste 13 Oeste 0 1009.7 -1.7 92
2019-12-03 04:00:00 13.6 0 Calma 10 Oeste 0.8 1009.8 -1.9 92
2019-12-03 03:00:00 13.5 4 Norte 12 Este 3.2 1010.9 -1.6 88
2019-12-03 02:00:00 14.2 0 Calma 8 Norte 0.5 1011.4 -1.9 81
2019-12-03 01:00:00 14.3 0 Calma 11 Oeste 0 1011.7 -1.2 81
2019-12-03 00:00:00 14.1 0 Calma 13 Nordeste 0.2 1012.5 0.1 84
2019-12-02 23:00:00 14.9 6 Este 15 Este 0.3 1013.3 1.3 77
2019-12-02 22:00:00 15.3 5 Nordeste 15 Este 0 1012.9 1.8 70
2019-12-02 21:00:00 15.7 4 Nordeste 20 Nordeste 0 1012.4 1.4 70
2019-12-02 20:00:00 14.9 9 Este 27 Este 0 1012 1.9 71
2019-12-02 19:00:00 15.5 13 Este 31 Este 0 1011.1 1.6 67
2019-12-02 18:00:00 15.6 8 Este 32 Este 0 1011 1.8 71
2019-12-02 17:00:00 16.4 11 Este 28 Sudeste 0 1010.1 0.4 67
2019-12-02 16:00:00 16.5 11 Este 32 Sudeste 0 1009.5 -1.1 76
2019-12-02 15:00:00 16.8 17 Sudeste 27 Sudeste 0 1009.2 -2.1 75
2019-12-02 14:00:00 17.2 11 Este 24 Este 0 1009.7 -1.6 67
2019-12-02 13:00:00 16.7 10 Sudeste 23 Este 0 1010.6 -0.9 70
2019-12-02 12:00:00 16.7 9 Sudeste 17 Este 0 1011.3 0.7 70
2019-12-02 11:00:00 16.1 7 Este 17 Este 0 1011.3 0.4 70
2019-12-02 10:00:00 14.2 8 Este 18 Norte 0 1011.5 1.1 71
2019-12-02 09:00:00 14.3 5 Nordeste 16 Norte 0 1010.6 0.3 73
2019-12-02 08:00:00 13.1 0 Calma 6 Norte 0 1010.9 0.4 81
2019-12-02 07:00:00 13 0 Calma 8 Norte 0 1010.4 -0.1 85
2019-12-02 06:00:00 12.9 0 Calma 6 Norte 0 1010.3 -0.7 85
2019-12-02 05:00:00 13 2 Norte 14 Este 0 1010.5 -0.4 87
2019-12-02 04:00:00 12.7 3 Norte 7 Norte 0 1010.5 -0.7 89
2019-12-02 03:00:00 13.5 2 Norte 12 Oeste 0 1011 -0.4 89
2019-12-02 02:00:00 14.5 8 Oeste 19 Oeste 0 1010.9 -0.8 88
2019-12-02 01:00:00 14.5 0 Calma 14 Oeste 0 1011.2 -0.5 86
2019-12-02 00:00:00 14.6 8 Oeste 23 Oeste 0 1011.4 -0.2 87
2019-12-01 23:00:00 14.5 12 Oeste 24 Oeste 0 1011.7 0.2 88
2019-12-01 22:00:00 15.1 15 Oeste 28 Oeste 0 1011.7 0.5 83
2019-12-01 21:00:00 15.6 13 Oeste 29 Sudoeste 0 1011.6 0.5 74
2019-12-01 20:00:00 15.9 14 Oeste 33 Oeste 0 1011.5 0.1 66
2019-12-01 19:00:00 15.5 24 Oeste 40 Oeste 0 1011.2 -0.8 80
2019-12-01 18:00:00 15.5 17 Oeste 31 Oeste 0 1011.1 -0.7 76
2019-12-01 17:00:00 15.6 21 Oeste 38 Oeste 0 1011.4 -0.9 81
2019-12-01 16:00:00 15.4 22 Oeste 42 Sudoeste 0 1012 -0.8 84
2019-12-01 15:00:00 15.5 26 Oeste 44 Oeste 0 1011.8 -2.1 82
2019-12-01 14:00:00 15.5 21 Oeste 38 Oeste 0 1012.3 -1.7 81
2019-12-01 13:00:00 16.4 21 Oeste 35 Oeste 0 1012.8 -0.8 77
2019-12-01 12:00:00 16.4 18 Oeste 35 Oeste 0 1013.9 -0.3 76
2019-12-01 11:00:00 16.3 18 Oeste 30 Oeste 0 1014 -0.2 78
2019-12-01 10:00:00 16.3 12 Oeste 29 Oeste 0 1013.6 -0.5 82
2019-12-01 09:00:00 16 14 Sudoeste 24 Sudoeste 0 1014.2 0.3 82
2019-12-01 08:00:00 13.6 4 Norte 12 Nordeste 0 1014.2 -0.1 80
2019-12-01 07:00:00 13.1 0 Calma 9 Nordeste 0 1014.1 -0.9 81
2019-12-01 06:00:00 13 0 Calma 9 Este 0 1013.9 -1.8 84
2019-12-01 05:00:00 13 0 Calma 7 Norte 0 1014.3 -1.5 83
2019-12-01 04:00:00 13.2 2 Norte 10 Norte 0 1015 -1.6 82
2019-12-01 03:00:00 12.4 0 Calma 6 Norte 0 1015.7 -1.5 83
2019-12-01 02:00:00 12.4 0 Calma 7 Norte 0 1015.8 -1.7 86
2019-12-01 01:00:00 13.2 0 Calma 5 Noroeste 0 1016.6 -1.6 91
2019-12-01 00:00:00 13.1 0 Calma 6 Noroeste 0 1017.2 -1.1 88
2019-11-30 23:00:00 13.5 0 Calma 6 Norte 0 1017.5 -0.9 86
2019-11-30 22:00:00 14.3 0 Calma 11 Noroeste 0 1018.2 -0.2 86
2019-11-30 21:00:00 14.3 0 Calma 18 Oeste 0 1018.3 -0.2 86
2019-11-30 20:00:00 14.9 14 Oeste 21 Oeste 0 1018.4 -0.5 93
2019-11-30 19:00:00 14.9 11 Oeste 17 Oeste 0 1018.4 -0.1 95
2019-11-30 18:00:00 15.3 13 Oeste 20 Sudoeste 0 1018.5 -0.6 94
2019-11-30 17:00:00 15.9 14 Oeste 22 Sudoeste 0 1018.9 -0.6 92
2019-11-30 16:00:00 16.6 11 Oeste 17 Sudoeste 0 1018.5 -2 87
2019-11-30 15:00:00 16.6 11 Oeste 18 Oeste 0 1019.1 -2.7 83
2019-11-30 14:00:00 18.2 6 Sudoeste 12 Sudoeste 0 1019.5 -2.2 70
2019-11-30 13:00:00 19.4 0 Calma 6 Sur 0 1020.5 -0.8 64
2019-11-30 12:00:00 18.1 3 Sudoeste 7 Sudoeste 0 1021.8 -0.4 67
2019-11-30 11:00:00 18.5 0 Calma 3 Sur 0 1021.7 -1 64
2019-11-30 10:00:00 18.5 0 Calma 0 Calma 0 1021.3 -0.5 61
2019-11-30 09:00:00 14.5 0 Calma 4 Norte 0 1022.2 0.4 76
2019-11-30 08:00:00 12.8 0 Calma 5 Nordeste 0 1022.7 0.7 82
2019-11-30 07:00:00 12.8 0 Calma 7 Este 0 1021.8 -0.3 78
2019-11-30 06:00:00 12.8 0 Calma 6 Este 0 1021.8 -0.4 82
2019-11-30 05:00:00 12.8 0 Calma 4 Norte 0 1022 -0.1 89
2019-11-30 04:00:00 12.8 0 Calma 5 Norte 0 1022.1 -0.3 89
2019-11-30 03:00:00 13.1 0 Calma 5 Norte 0 1022.2 -0.3 89
2019-11-30 02:00:00 13.3 0 Calma 6 Norte 0 1022.1 -0.1 88
2019-11-30 01:00:00 13.4 0 Calma 4 Norte 0 1022.4 0.2 88
2019-11-30 00:00:00 13.6 0 Calma 3 Norte 0 1022.5 0.2 88
2019-11-29 23:00:00 14 0 Calma 3 Norte 0 1022.2 0.3 91
2019-11-29 22:00:00 14.2 0 Calma 5 Norte 0 1022.2 0.8 91
2019-11-29 21:00:00 14.1 0 Calma 3 Este 0 1022.3 1.4 92
2019-11-29 20:00:00 14.6 0 Calma 3 Norte 0 1021.9 2.7 93
2019-11-29 19:00:00 15.2 0 Calma 3 Oeste 0 1021.4 2.4 92
2019-11-29 18:00:00 16.2 2 Sudeste 5 Sudoeste 0 1020.9 1.7 83
2019-11-29 17:00:00 18.4 0 Calma 8 Sudoeste 0 1019.2 -0.3 77
2019-11-29 16:00:00 16.9 5 Sudeste 8 Sur 0 1019 -1.3 79
2019-11-29 15:00:00 17.2 6 Sudeste 9 Sudeste 0 1019.2 -2.2 79
2019-11-29 14:00:00 18.4 3 Sur 7 Sudeste 0 1019.5 -1.5 76
2019-11-29 13:00:00 19.2 0 Calma 8 Sudeste 0 1020.3 0.1 71
2019-11-29 12:00:00 17 6 Sudeste 11 Sudeste 0 1021.4 1 75
2019-11-29 11:00:00 17.4 5 Sudeste 10 Este 0 1021 0 66
2019-11-29 10:00:00 17 3 Este 13 Nordeste 0 1020.2 -0.2 55
2019-11-29 09:00:00 15.4 0 Calma 15 Este 0 1020.4 0.3 67
2019-11-29 08:00:00 12.1 0 Calma 8 Este 0 1021 1.2 78
2019-11-29 07:00:00 12.9 3 Nordeste 8 Nordeste 0 1020.4 0.6 77
2019-11-29 06:00:00 12.4 2 Nordeste 8 Este 0 1020.1 0.4 80
2019-11-29 05:00:00 12.6 2 Norte 5 Norte 0 1019.8 0.5 77
2019-11-29 04:00:00 13.6 4 Nordeste 14 Este 0 1019.8 0.3 73
2019-11-29 03:00:00 13.4 2 Nordeste 15 Este 0 1019.7 0.3 77
2019-11-29 02:00:00 13.9 6 Este 13 Nordeste 0 1019.3 0.1 88
2019-11-29 01:00:00 14.2 6 Este 14 Este 0 1019.5 0.6 89
2019-11-29 00:00:00 14.1 8 Este 16 Este 0 1019.4 0.8 86
2019-11-28 23:00:00 14 8 Este 17 Este 0 1019.2 0.7 77
2019-11-28 22:00:00 14 3 Nordeste 13 Este 0 1018.9 1 83
2019-11-28 21:00:00 14.5 0 Calma 5 Nordeste 0 1018.6 1 80
2019-11-28 20:00:00 14.9 0 Calma 12 Oeste 0 1018.5 1.7 78
2019-11-28 19:00:00 15.5 7 Oeste 15 Noroeste 0 1017.9 1.2 83
2019-11-28 18:00:00 16 9 Oeste 18 Sudoeste 0 1017.6 1.3 79
2019-11-28 17:00:00 16.6 10 Oeste 17 Oeste 0 1016.8 0 77
2019-11-28 16:00:00 16.8 9 Oeste 18 Sudoeste 0 1016.7 -1.4 81
2019-11-28 15:00:00 17.9 7 Sudoeste 14 Sudoeste 0 1016.3 -2.6 68
2019-11-28 14:00:00 18.7 6 Sudoeste 12 Sudoeste 0 1016.8 -1.5 62
2019-11-28 13:00:00 19.1 2 Sudoeste 9 Sur 0 1018.1 -0.3 57
2019-11-28 12:00:00 18.4 3 Sur 9 Sudeste 0 1018.9 0.8 65
2019-11-28 11:00:00 19.8 0 Calma 5 Sur 0 1018.3 -0.3 59
2019-11-28 10:00:00 17.3 3 Sudoeste 5 Sudoeste 0 1018.4 0.9 67
2019-11-28 09:00:00 15.7 0 Calma 7 Nordeste 0 1018.1 1 71
2019-11-28 08:00:00 13.3 0 Calma 7 Oeste 0 1018.6 1.7 75
2019-11-28 07:00:00 13.4 2 Norte 6 Norte 0 1017.5 1.1 75
2019-11-28 06:00:00 13.3 2 Norte 6 Sudoeste 0 1017.1 0.4 77
2019-11-28 05:00:00 14 2 Noroeste 10 Oeste 0 1016.9 0.7 75
2019-11-28 04:00:00 13.6 2 Norte 6 Este 0 1016.4 -0.1 75
2019-11-28 03:00:00 14.5 0 Calma 12 Oeste 0 1016.7 0.4 76
2019-11-28 02:00:00 15.3 2 Nordeste 14 Este 0 1016.2 0.3 66
2019-11-28 01:00:00 15 2 Nordeste 7 Noroeste 0 1016.5 1 75
2019-11-28 00:00:00 15.1 4 Norte 9 Norte 0 1016.3 1.4 71
2019-11-27 23:00:00 14.3 0 Calma 6 Este 0 1015.9 1.8 77
2019-11-27 22:00:00 14.3 0 Calma 18 Sudoeste 0 1015.5 2.4 83
2019-11-27 21:00:00 16.5 4 Oeste 19 Sudoeste 0 1014.9 2.2 72
2019-11-27 20:00:00 16.4 0 Calma 25 Oeste 0 1014.1 1.8 69
2019-11-27 19:00:00 17.1 9 Oeste 36 Oeste 0 1013.1 1.4 69
2019-11-27 18:00:00 16.1 22 Oeste 43 Oeste 0 1012.7 0.6 86
2019-11-27 17:00:00 16.6 26 Oeste 44 Oeste 0 1012.3 0.2 83
2019-11-27 16:00:00 17.1 23 Sudoeste 47 Sudoeste 0 1011.7 -0.9 81
2019-11-27 15:00:00 16.6 27 Sudoeste 51 Sudoeste 0 1012.1 -1.8 83
2019-11-27 14:00:00 17.5 27 Sudoeste 49 Sudoeste 0 1012.1 -1.8 76
2019-11-27 06:00:00 15.8 13 Oeste 37 Oeste 0 1012 -0.3 87
2019-11-27 05:00:00 15.7 13 Sudoeste 31 Oeste 0 1012.3 -0.1 87
2019-11-27 04:00:00 16.1 18 Sudoeste 32 Sudoeste 0 1012.3 -0.6 82
2019-11-27 03:00:00 16.2 19 Oeste 39 Oeste 0 1012.3 -1.1 81
2019-11-27 02:00:00 17.1 22 Oeste 37 Oeste 0 1012.4 -1.2 73
2019-11-27 01:00:00 17.3 18 Oeste 35 Oeste 0 1012.9 -1.2 72
2019-11-27 00:00:00 16.8 13 Oeste 28 Oeste 0 1013.4 -0.7 80
2019-11-26 23:00:00 16.8 11 Sudoeste 21 Sudoeste 0 1013.6 -0.2 82
2019-11-26 22:00:00 14.5 0 Calma 4 Noroeste 0 1014.1 0.9 87
2019-11-26 21:00:00 15.2 0 Calma 5 Oeste 0 1014.1 0.7 89
2019-11-26 20:00:00 15.2 0 Calma 4 Sudeste 0 1013.8 0.9 92
2019-11-26 19:00:00 16 0 Calma -- -- -- 1013.2 0.7 91
2019-11-26 18:00:00 16.4 0 Calma 5 Sudoeste 0 1013.4 0.7 86
2019-11-26 17:00:00 17 0 Calma 13 Sudoeste 0 1012.9 -0.8 82
2019-11-26 16:00:00 17 9 Sudoeste 16 Oeste 0 1012.5 -1.7 81
2019-11-26 15:00:00 17.8 4 Sudoeste 14 Sudoeste 0 1012.7 -2.6 73
2019-11-26 14:00:00 18.5 10 Oeste 14 Sudoeste 0 1013.7 -1.3 67
2019-11-26 13:00:00 19.2 0 Calma 8 Sudoeste 0 1014.2 -0.4 68
2019-11-26 12:00:00 18.3 4 Sudoeste 8 Sudoeste 0 1015.3 0 71
2019-11-26 11:00:00 19.1 0 Calma 9 Sur 0 1015 -1.2 68
2019-11-26 10:00:00 19.1 0 Calma 4 Sudoeste 0 1014.6 -1.2 64
2019-11-26 09:00:00 16.7 0 Calma 5 Noroeste 0 1015.3 -0.4 75
2019-11-26 08:00:00 13.8 0 Calma 8 Norte 0 1016.2 0.4 85
2019-11-26 07:00:00 13.9 0 Calma 6 Norte 0 1015.8 -0.4 82
2019-11-26 06:00:00 14 0 Calma 6 Noroeste 0 1015.7 -0.4 88
2019-11-26 05:00:00 14.4 0 Calma 25 Oeste 0 1015.8 -0.8 87
2019-11-26 04:00:00 15.7 11 Oeste 26 Oeste 0 1016.2 -0.5 77
2019-11-26 03:00:00 14.5 2 Nordeste 8 Nordeste 0 1016.1 -0.3 80
2019-11-26 02:00:00 14.5 0 Calma 14 Noroeste 0 1016.6 0.4 87
2019-11-26 01:00:00 15.4 0 Calma 20 Este 0 1016.7 0.9 77
2019-11-26 00:00:00 14.8 0 Calma 13 Oeste 0 1016.4 0.8 83
2019-11-25 23:00:00 15.8 7 Oeste 20 Oeste 0 1016.2 0.9 76
2019-11-25 22:00:00 15.8 8 Nordeste 20 Nordeste 0 1015.8 1.2 69
2019-11-25 21:00:00 15.8 4 Nordeste 10 Nordeste 0 1015.6 1 77
2019-11-25 20:00:00 15.9 0 Calma 11 Este 0 1015.3 1.4 73
2019-11-25 19:00:00 16.7 3 Este 12 Nordeste 0 1014.6 0.7 73
2019-11-25 18:00:00 17.2 0 Calma 9 Este 0 1014.6 0.7 71
2019-11-25 17:00:00 18.4 5 Sudoeste 11 Sudoeste 0 1013.9 -0.6 68
2019-11-25 16:00:00 18.4 6 Sudoeste 10 Sudoeste 0 1013.9 -2.2 67
2019-11-25 15:00:00 17.6 5 Sudeste 9 Sudeste 0 1013.9 -3.4 65
2019-11-25 14:00:00 18.8 2 Sudoeste 12 Sudoeste 0 1014.5 -2.8 60
2019-11-25 13:00:00 17.7 5 Sudoeste 11 Sudoeste 0 1016.1 -1.7 59
2019-11-25 12:00:00 17.5 4 Sudoeste 10 Sudoeste 0 1017.3 0.1 53
2019-11-25 11:00:00 16.9 4 Sudoeste 20 Oeste 0 1017.3 -0.5 54
2019-11-25 10:00:00 15.3 12 Oeste 21 Oeste 0 1017.8 0.8 57
2019-11-25 09:00:00 14.1 2 Nordeste 6 Nordeste 0 1017.2 1 51
2019-11-25 08:00:00 11.8 3 Norte 7 Norte 0 1017.8 1.6 55
2019-11-25 07:00:00 13.6 3 Nordeste 16 Norte 0 1017 0.7 55
2019-11-25 06:00:00 14.1 9 Norte 20 Nordeste 0 1016.2 -0.2 49
2019-11-25 05:00:00 13.5 3 Norte 19 Norte 0 1016.2 -0.1 51
2019-11-25 04:00:00 13.4 4 Nordeste 14 Norte 0 1016.3 -0.3 51
2019-11-25 03:00:00 13.2 4 Nordeste 8 Este 0 1016.4 -0.3 53
2019-11-25 02:00:00 13.4 3 Nordeste 9 Este 0 1016.3 -0.6 53
2019-11-25 01:00:00 13 4 Norte 9 Norte 0 1016.6 -0.1 54
2019-11-25 00:00:00 12.8 4 Nordeste 7 Norte 0 1016.7 0.2 59
2019-11-24 23:00:00 12.9 2 Norte 6 Nordeste 0 1016.9 0.7 58
2019-11-24 22:00:00 13.4 2 Norte 10 Noroeste 0 1016.7 0.9 53
2019-11-24 21:00:00 14.7 5 Norte 15 Norte 0 1016.5 1.3 49
2019-11-24 20:00:00 13.9 4 Nordeste 11 Este 0 1016.2 2.4 55
2019-11-24 19:00:00 13.8 0 Calma 7 Norte 0 1015.8 1.3 70
2019-11-24 18:00:00 15.3 0 Calma 8 Este 0 1015.2 2.6 54
2019-11-24 17:00:00 18.7 0 Calma 10 Sudoeste 0 1013.8 -0.9 49
2019-11-24 16:00:00 17.3 6 Oeste 10 Sudoeste 0 1014.5 -0.9 46
2019-11-24 15:00:00 19.2 0 Calma 15 Oeste 0 1012.6 -2.2 46
2019-11-24 14:00:00 16.2 10 Oeste 19 Sudoeste 0 1014.7 -0.7 51
2019-11-24 13:00:00 15.3 13 Oeste 18 Oeste 0 1015.4 -0.5 50
2019-11-24 12:00:00 18.7 2 Sur 5 Sur 0 1014.8 0.2 42
2019-11-24 11:00:00 16 0 Calma 7 Este 0 1015.4 0.6 47
2019-11-24 10:00:00 14 3 Nordeste 8 Sudoeste 0 1015.9 2 48
2019-11-24 09:00:00 15.4 3 Oeste 19 Norte 0 1014.6 1.2 44
2019-11-24 08:00:00 13.3 6 Nordeste 17 Norte 0 1014.8 1.5 45
2019-11-24 07:00:00 13 4 Norte 17 Norte 0 1013.9 0.4 47
2019-11-24 06:00:00 13.2 6 Norte 14 Nordeste 0 1013.4 0.5 45
2019-11-24 05:00:00 12.6 5 Norte 10 Norte 0 1013.3 0.2 49
2019-11-24 04:00:00 12 5 Norte 7 Norte 0 1013.5 0.4 51
2019-11-24 03:00:00 12.9 3 Norte 8 Norte 0 1012.9 0.2 48
2019-11-24 02:00:00 13 2 Norte 8 Norte 0 1013.1 0.8 48
2019-11-24 01:00:00 13.1 3 Norte 6 Nordeste 0 1013.1 1.5 53
2019-11-24 00:00:00 13.6 0 Calma 12 Sudoeste 0 1012.7 2.4 56
2019-11-23 23:00:00 14 0 Calma 9 Oeste 0 1012.3 3.2 46
2019-11-23 22:00:00 15.5 3 Noroeste 15 Norte 0 1011.6 3.7 44
2019-11-23 21:00:00 15.5 8 Norte 17 Norte 0 1010.3 3.5 45
2019-11-23 20:00:00 16.3 14 Oeste 40 Oeste 0 1009.1 4.4 44
2019-11-23 19:00:00 17.1 16 Sudoeste 39 Oeste 0 1007.9 4.2 40
2019-11-23 18:00:00 17.2 20 Oeste 51 Oeste 0 1006.8 3 43
2019-11-23 17:00:00 17.5 29 Oeste 52 Oeste 0 1004.7 0.8 43
2019-11-23 16:00:00 17.6 33 Oeste 57 Oeste 0 1003.7 -0.3 43
2019-11-23 15:00:00 17.6 30 Oeste 58 Oeste 0 1003.8 -0.1 44
2019-11-23 14:00:00 19.4 21 Oeste 55 Sudoeste 0 1003.9 0.7 34
2019-11-23 13:00:00 17 35 Sudoeste 59 Sudoeste 0 1004 1.3 46
2019-11-23 12:00:00 16.6 36 Oeste 61 Oeste 0 1003.9 1.6 48
2019-11-23 11:00:00 16.2 36 Oeste 63 Sudoeste 0 1003.2 2.1 50
2019-11-23 10:00:00 16.8 33 Oeste 57 Oeste 0 1002.7 3.6 46
2019-11-23 09:00:00 16.5 28 Oeste 50 Sudoeste 0 1002.3 4.3 49
2019-11-23 08:00:00 16.3 23 Oeste 62 Oeste 0 1001.1 4.8 48
2019-11-23 07:00:00 16.7 37 Oeste 77 Oeste 0 999.1 2.3 48
2019-11-23 06:00:00 17.1 32 Oeste 67 Sudoeste 0 998 0.5 39
2019-11-23 05:00:00 18.2 33 Oeste 79 Oeste 0 996.3 -0.6 36
2019-11-23 04:00:00 18.1 24 Oeste 60 Oeste 0 996.8 -0.6 39
2019-11-23 03:00:00 18.8 28 Oeste 63 Oeste 0 997.5 -3 37
2019-11-23 02:00:00 19.1 27 Oeste 48 Oeste 0 996.9 -6.3 35
2019-11-23 01:00:00 19.2 20 Oeste 36 Oeste 0 997.4 -6 32
2019-11-23 00:00:00 15 6 Nordeste 27 Oeste 0 1000.5 0.5 97
2019-11-22 23:00:00 15.6 15 Oeste 47 Oeste 1.4 1003.2 2.4 98
2019-11-22 22:00:00 15.9 31 Oeste 54 Oeste 0 1003.4 1.9 97
2019-11-22 21:00:00 16.1 25 Oeste 42 Oeste 0 1000 -2.3 97
2019-11-22 20:00:00 14.6 7 Sudoeste 20 Sudoeste 0 1000.8 -2.1 98
2019-11-22 19:00:00 14.4 7 Sudoeste 13 Sudoeste 0 1001.5 -1.8 98
2019-11-22 18:00:00 14.1 0 Calma 9 Sudoeste 0 1002.3 -1.7 98
2019-11-22 17:00:00 14 0 Calma 11 Oeste 0 1002.9 -3 98
2019-11-22 16:00:00 13.9 5 Oeste 12 Sudoeste 0 1003.3 -3.7 98
2019-11-22 15:00:00 13.9 4 Oeste 13 Oeste 0 1004 -4 98
2019-11-22 14:00:00 13.6 8 Oeste 18 Sudoeste 0 1005.9 -2.7 98
2019-11-22 13:00:00 14 6 Oeste 16 Oeste 0 1007 -1.6 98
2019-11-22 12:00:00 14 4 Oeste 12 Oeste 0 1008 -1.1 98
2019-11-22 11:00:00 14.1 0 Calma 9 Oeste 0 1008.6 0 98
2019-11-22 10:00:00 14 0 Calma 15 Sudoeste 0 1008.6 0.3 98
2019-11-22 09:00:00 13.8 5 Oeste 18 Oeste 0 1009.1 0.5 98
2019-11-22 08:00:00 14 7 Oeste 22 Oeste 0 1008.6 -0.2 98
2019-11-22 07:00:00 14.2 10 Sudoeste 27 Oeste 0 1008.3 -0.8 98
2019-11-22 06:00:00 14.4 13 Sudoeste 24 Sudoeste 0 1008.6 -1 98
2019-11-22 05:00:00 14.7 12 Sudoeste 22 Oeste 0 1008.8 -1 98
2019-11-22 04:00:00 14.5 11 Oeste 18 Oeste 0 1009.1 -1.4 98
2019-11-22 03:00:00 14.7 10 Sudoeste 22 Sudoeste 0 1009.6 -1.4 98
2019-11-22 02:00:00 14.4 2 Sudoeste 5 Sudoeste 0 1009.8 -1.5 98
2019-11-22 01:00:00 13.9 0 Calma 5 Oeste 0 1010.5 -1 98
2019-11-22 00:00:00 13.8 0 Calma 11 Oeste 0 1011 -0.3 98
2019-11-21 23:00:00 13.6 5 Oeste 14 Oeste 0.3 1011.3 -0.2 98
2019-11-21 22:00:00 13.9 4 Oeste 14 Sudoeste 1 1011.5 0.1 97
2019-11-21 21:00:00 13.9 10 Oeste 23 Sudoeste 1.1 1011.3 0.7 97
2019-11-21 20:00:00 14.4 12 Oeste 21 Oeste 0.3 1011.5 0.4 95
2019-11-21 19:00:00 14.8 11 Sudoeste 18 Sudoeste 0.8 1011.4 1.2 93
2019-11-21 18:00:00 14.9 9 Oeste 16 Oeste 0.2 1010.6 0 91
2019-11-21 17:00:00 15.2 10 Oeste 19 Sudoeste 0 1011.1 0.1 87
2019-11-21 16:00:00 15.7 13 Oeste 24 Oeste 0 1010.2 -1.9 84
2019-11-21 15:00:00 15.4 15 Oeste 24 Sudoeste 0 1010.6 -2.3 84
2019-11-21 14:00:00 14.7 10 Oeste 22 Oeste 0.3 1011 -2.2 89
2019-11-21 13:00:00 13.8 12 Oeste 19 Oeste 0.2 1012.1 -0.5 94
2019-11-21 12:00:00 13.4 0 Calma 27 Oeste 2.4 1012.9 0.5 97
2019-11-21 11:00:00 14.4 15 Oeste 23 Sudoeste 0 1013.2 1 91
2019-11-21 10:00:00 14.4 14 Oeste 23 Oeste 0 1012.6 0.8 86
2019-11-21 09:00:00 13.5 10 Oeste 24 Oeste 0 1012.4 0.8 87
2019-11-21 08:00:00 -- -- -- -- -- -- -- -- --
2019-11-21 07:00:00 -- -- -- -- -- -- -- -- --
2019-11-21 06:00:00 -- -- -- -- -- -- -- -- --
2019-11-21 05:00:00 -- -- -- -- -- -- -- -- --
2019-11-21 04:00:00 -- -- -- -- -- -- -- -- --
2019-11-21 03:00:00 -- -- -- -- -- -- -- -- --
2019-11-21 02:00:00 -- -- -- -- -- -- -- -- --
2019-11-21 01:00:00 -- -- -- -- -- -- -- -- --
2019-11-21 00:00:00 -- -- -- -- -- -- -- -- --
2019-11-20 23:00:00 -- -- -- -- -- -- -- -- --
2019-11-20 22:00:00 -- -- -- -- -- -- -- -- --
2019-11-20 21:00:00 -- -- -- -- -- -- -- -- --
2019-11-20 20:00:00 -- -- -- -- -- -- -- -- --
2019-11-20 19:00:00 14.4 15 Oeste 32 Oeste 0 1012.1 0.3 78
2019-11-20 18:00:00 14.6 15 Oeste 29 Oeste 0 1012 0.1 78
2019-11-20 17:00:00 14.7 17 Oeste 30 Oeste 0 1011.5 -0.5 77
2019-11-20 16:00:00 14.1 19 Oeste 37 Oeste 0 1011.8 -0.6 83
2019-11-20 15:00:00 13.7 22 Oeste 38 Oeste 0 1011.9 -1.7 83
2019-11-20 14:00:00 15.1 19 Sudoeste 31 Sudoeste 0 1012 -1.6 69
2019-11-20 13:00:00 15.8 10 Oeste 18 Oeste 0 1012.4 -1.2 65
2019-11-20 12:00:00 15.5 10 Sudoeste 18 Sudoeste 0 1013.6 -0.2 64
2019-11-20 11:00:00 15.6 9 Sudoeste 15 Sudoeste 0 1013.6 -1 62
2019-11-20 10:00:00 15.9 4 Sudoeste 10 Sudoeste 0 1013.6 -0.8 55
2019-11-20 09:00:00 14.6 0 Calma 7 Norte 0 1013.8 -0.7 55
2019-11-20 08:00:00 12.2 3 Norte 11 Norte 0 1014.6 0 59
2019-11-20 07:00:00 12 3 Nordeste 7 Este 0 1014.4 -0.8 61
2019-11-20 06:00:00 11.9 0 Calma 3 Norte 0 1014.5 -1.1 65
2019-11-20 05:00:00 12.6 0 Calma 7 Nordeste 0 1014.6 -1.1 60
2019-11-20 04:00:00 12.6 3 Norte 6 Norte 0 1015.2 -0.6 60
2019-11-20 03:00:00 12.7 0 Calma 10 Este 0 1015.6 -0.6 60
2019-11-20 02:00:00 13.1 3 Este 12 Este 0 1015.7 -0.9 58
2019-11-20 01:00:00 13.8 6 Nordeste 14 Este 0 1015.8 -0.9 55
2019-11-20 00:00:00 13.1 0 Calma 4 Norte 0 1016.2 -0.7 64
2019-11-19 23:00:00 13.1 0 Calma 5 Norte 0 1016.6 -0.3 64
2019-11-19 22:00:00 12.9 0 Calma 5 Norte 0 1016.7 0.2 65
2019-11-19 21:00:00 12.8 3 Norte 4 Norte 0 1016.9 0.7 66
2019-11-19 20:00:00 13.4 2 Norte 12 Sudoeste 0 1016.9 1 65
2019-11-19 19:00:00 14 7 Oeste 17 Oeste 0 1016.5 0.6 67
2019-11-19 18:00:00 14.4 11 Oeste 21 Oeste 0 1016.2 0.1 66
2019-11-19 17:00:00 15.1 14 Oeste 25 Oeste 0 1015.9 -0.8 61
2019-11-19 16:00:00 15.4 12 Oeste 23 Oeste 0 1015.9 -1.3 61
2019-11-19 15:00:00 15.7 11 Oeste 18 Oeste 0 1016.1 -1.8 61
2019-11-19 14:00:00 16.2 12 Oeste 17 Sudoeste 0 1016.7 -1.4 61
2019-11-19 13:00:00 16.3 10 Sudoeste 15 Sudoeste 0 1017.2 -1.3 56
2019-11-19 12:00:00 17 6 Sudeste 10 Este 0 1017.9 -1 48
2019-11-19 11:00:00 17.6 3 Nordeste 14 Norte 0 1018.1 -1 43
2019-11-19 10:00:00 15.8 8 Norte 17 Norte 0 1018.5 -0.3 43
2019-11-19 09:00:00 14 9 Norte 21 Norte 0 1018.9 0.8 48
2019-11-19 08:00:00 13.1 8 Norte 15 Norte 0 1019.1 1 49
2019-11-19 07:00:00 13 6 Norte 15 Nordeste 0 1018.8 0.8 49
2019-11-19 06:00:00 12.9 10 Norte 19 Norte 0 1018.1 0 49
2019-11-19 05:00:00 12.8 7 Norte 20 Norte 0 1018.1 -0.2 51
2019-11-19 04:00:00 13.3 9 Norte 22 Norte 0 1018 -0.4 50
2019-11-19 03:00:00 13.2 7 Norte 18 Norte 0 1018.1 -0.1 51
2019-11-19 02:00:00 13.3 7 Norte 15 Nordeste 0 1018.3 0.3 53
2019-11-19 01:00:00 12.7 2 Nordeste 5 Nordeste 0 1018.4 1.1 54
2019-11-19 00:00:00 12.7 0 Calma 6 Nordeste 0 1018.2 1.4 48
2019-11-18 23:00:00 12.7 5 Nordeste 12 Este 0 1018 1.9 44
2019-11-18 22:00:00 14.1 4 Nordeste 12 Norte 0 1017.3 2.5 42
2019-11-18 21:00:00 15.2 8 Norte 14 Norte 0 1016.8 2.9 40
2019-11-18 20:00:00 14.4 5 Este 9 Este 0 1016.1 3.9 50
2019-11-18 19:00:00 15.9 2 Nordeste 7 Este 0 1014.8 3.6 51
2019-11-18 18:00:00 16.5 0 Calma 4 Sur 0 1013.9 3 57
2019-11-18 17:00:00 18.5 0 Calma 5 Sur 0 1012.2 1.4 51
2019-11-18 16:00:00 17.7 3 Sudeste 10 Sudeste 0 1011.2 -0.1 52
2019-11-18 15:00:00 17.4 6 Sudeste 18 Este 0 1010.9 0 50
2019-11-18 14:00:00 17.7 7 Este 21 Este 0 1010.8 0.5 48
2019-11-18 13:00:00 17.2 11 Este 28 Este 0 1011.3 2 55
2019-11-18 12:00:00 17.4 13 Este 28 Este 0 1010.9 1.5 60
2019-11-18 11:00:00 16.3 12 Este 27 Este 0.1 1010.3 0.9 71
2019-11-18 10:00:00 16.5 5 Sudeste 20 Este 0 1009.3 -0.2 64
2019-11-18 09:00:00 14.4 8 Este 15 Nordeste 0 1009.4 0.4 76
2019-11-18 08:00:00 13.8 0 Calma 20 Sudoeste 0 1009.4 0.1 91
2019-11-18 07:00:00 14.2 3 Oeste 30 Oeste 0 1009.5 -0.1 94
2019-11-18 06:00:00 14.5 16 Oeste 33 Sudoeste 0.2 1009 -1.6 96
2019-11-18 05:00:00 14.8 21 Oeste 43 Oeste 0 1009.3 -1.5 90
2019-11-18 04:00:00 14.6 26 Oeste 45 Oeste 0 1009.6 -1.9 92
2019-11-18 03:00:00 14.4 23 Oeste 46 Oeste 0 1010.6 -1.7 95
2019-11-18 02:00:00 14.5 32 Oeste 47 Oeste 0 1010.8 -2.4 95
2019-11-18 01:00:00 14.6 28 Oeste 45 Oeste 0 1011.5 -2.2 94
2019-11-18 00:00:00 14.4 23 Oeste 45 Oeste 0 1012.3 -1.6 94
2019-11-17 23:00:00 14.4 28 Oeste 51 Oeste 0 1013.2 -1.4 95
2019-11-17 22:00:00 14.5 28 Oeste 49 Oeste 0 1013.7 -0.6 93
2019-11-17 21:00:00 15.3 10 Oeste 50 Oeste 0 1013.9 -0.9 81
2019-11-17 20:00:00 14.8 26 Oeste 50 Oeste 0 1014.6 -0.5 86
2019-11-17 19:00:00 15 29 Oeste 63 Oeste 0 1014.3 -0.6 82
2019-11-17 18:00:00 14.6 25 Oeste 49 Oeste 0 1014.8 -0.6 87
2019-11-17 17:00:00 14.8 25 Oeste 52 Oeste 0 1015.1 -0.8 84
2019-11-17 16:00:00 15.1 29 Oeste 60 Oeste 0 1014.9 -2.2 73
2019-11-17 15:00:00 14.7 27 Oeste 51 Oeste 0 1015.4 -2.2 67
2019-11-17 14:00:00 14.9 26 Oeste 46 Oeste 0 1015.9 -1.2 69
2019-11-17 13:00:00 14.4 20 Oeste 34 Sudoeste 0 1017.1 -0.5 67
2019-11-17 12:00:00 15.9 6 Sudoeste 13 Sur 0 1017.6 -0.4 50
2019-11-17 11:00:00 17.7 2 Sur 9 Sudoeste 0 1017.1 -1.2 43
2019-11-17 10:00:00 15.9 4 Norte 13 Norte 0 1017.6 -0.5 42
2019-11-17 09:00:00 13.7 3 Norte 18 Norte 0 1018 0.1 48
2019-11-17 08:00:00 11 9 Norte 19 Nordeste 0 1018.3 0.7 53
2019-11-17 07:00:00 11.3 4 Norte 16 Nordeste 0 1018.1 0.2 54
2019-11-17 06:00:00 11.5 6 Norte 18 Norte 0 1017.9 -0.2 54
2019-11-17 05:00:00 11.5 8 Norte 20 Norte 0 1017.6 -0.7 54
2019-11-17 04:00:00 11.8 8 Nordeste 19 Norte 0 1017.9 -0.5 53
2019-11-17 03:00:00 11.8 6 Norte 13 Norte 0 1018.1 -0.1 54
2019-11-17 02:00:00 12.2 6 Norte 13 Norte 0 1018.3 0 49
2019-11-17 01:00:00 12.8 5 Norte 15 Norte 0 1018.4 1 45
2019-11-17 00:00:00 12.4 8 Norte 18 Norte 0 1018.2 1.9 47
2019-11-16 23:00:00 12.4 3 Nordeste 11 Oeste 0 1018.3 2 50
2019-11-16 22:00:00 13.6 3 Norte 28 Nordeste 0 1017.4 1.5 45
2019-11-16 21:00:00 14 11 Norte 24 Norte 0 1016.3 1.2 47
2019-11-16 20:00:00 13 3 Este 11 Este 0 1016.3 1.8 56
2019-11-16 19:00:00 13.1 0 Calma 9 Nordeste 0 1015.9 1.9 70
2019-11-16 18:00:00 14.3 8 Oeste 26 Oeste 0 1015.1 1 71
2019-11-16 17:00:00 15.1 11 Sudoeste 31 Sudoeste 0 1014.5 0.1 66
2019-11-16 16:00:00 14.4 22 Oeste 37 Oeste 0 1014 -0.4 60
2019-11-16 15:00:00 14.3 23 Oeste 36 Oeste 0 1014.1 0.1 59
2019-11-16 14:00:00 14.7 16 Oeste 27 Oeste 0 1014.4 0.3 55
2019-11-16 13:00:00 14.5 15 Oeste 23 Oeste 0 1014.4 0.7 54
2019-11-16 12:00:00 16.5 3 Sur 16 Este 0 1014 0.7 53
2019-11-16 11:00:00 14.9 6 Este 15 Norte 0 1014.1 1.4 49
2019-11-16 10:00:00 14.1 5 Nordeste 17 Este 0 1013.7 1.8 42
2019-11-16 09:00:00 12 9 Norte 20 Nordeste 0 1013.3 2.4 45
2019-11-16 08:00:00 11.2 6 Norte 18 Norte 0 1012.7 2.2 45
2019-11-16 07:00:00 10.8 2 Norte 13 Norte 0 1011.9 1.7 47
2019-11-16 06:00:00 11.2 2 Nordeste 15 Nordeste 0 1010.9 1 47
2019-11-16 05:00:00 11.3 6 Norte 15 Nordeste 0 1010.5 0.5 45
2019-11-16 04:00:00 10.9 9 Norte 17 Norte 0 1010.2 0.6 47
2019-11-16 03:00:00 11 0 Calma 10 Norte 0 1009.9 0.7 48
2019-11-16 02:00:00 11.8 0 Calma 13 Oeste 0 1010 1.4 47
2019-11-16 01:00:00 12 5 Noroeste 13 Norte 0 1009.6 1.4 43
2019-11-16 00:00:00 12.5 4 Oeste 23 Norte 0 1009.2 1.9 43
2019-11-15 23:00:00 12.7 7 Nordeste 19 Norte 0 1008.6 2.3 40
2019-11-15 22:00:00 12.4 0 Calma 20 Norte 0 1008.2 2.1 39
2019-11-15 21:00:00 13.1 6 Norte 26 Norte 0 1007.3 1.7 39
2019-11-15 20:00:00 12.6 5 Nordeste 14 Este 0 1006.3 0.9 45
2019-11-15 19:00:00 13.2 14 Oeste 36 Oeste 0 1006.1 0.8 51
2019-11-15 18:00:00 14 20 Oeste 40 Oeste 0 1005.6 0 53
2019-11-15 17:00:00 14.4 21 Oeste 37 Oeste 0 1005.4 -0.4 54
2019-11-15 16:00:00 14.3 23 Oeste 49 Oeste 0 1005.3 -0.6 59
2019-11-15 15:00:00 13.9 22 Oeste 41 Oeste 0 1005.6 -1 60
2019-11-15 14:00:00 14.1 23 Oeste 43 Oeste 0 1005.8 -0.6 54
2019-11-15 13:00:00 15.6 0 Calma 7 Oeste 0 1005.9 0.2 42
2019-11-15 12:00:00 15.7 3 Sudoeste 16 Sudoeste 0 1006.6 1.3 45
2019-11-15 11:00:00 16.3 0 Calma 12 Este 0 1006.4 1.4 49
2019-11-15 10:00:00 15.3 0 Calma 19 Nordeste 0 1005.7 1.2 48
2019-11-15 09:00:00 13.9 0 Calma 43 Oeste 0 1005.3 0.7 47
2019-11-15 08:00:00 13 11 Noroeste 40 Oeste 0 1005 -0.4 50
2019-11-15 07:00:00 12.7 20 Oeste 50 Oeste 0 1004.5 -1 56
2019-11-15 06:00:00 13 31 Oeste 55 Oeste 0 1004.6 -1 59
2019-11-15 05:00:00 13.7 27 Oeste 44 Oeste 0 1005.4 -0.4 54
2019-11-15 04:00:00 14.2 20 Oeste 42 Oeste 0 1005.5 -0.8 51
2019-11-15 03:00:00 14.4 27 Oeste 56 Oeste 0 1005.6 -0.4 55
2019-11-15 02:00:00 14.2 21 Oeste 56 Oeste 0 1005.8 -0.3 58
2019-11-15 01:00:00 14.1 28 Oeste 50 Oeste 0 1006.3 0.3 61
2019-11-15 00:00:00 14.5 17 Oeste 27 Oeste 0 1006 0.6 55
2019-11-14 23:00:00 13.9 4 Noroeste 12 Noroeste 0 1006.1 1.6 54
2019-11-14 22:00:00 14.7 2 Nordeste 13 Norte 0 1006 2.6 54
2019-11-14 21:00:00 14.8 3 Norte 17 Oeste 0 1005.4 2.3 46
2019-11-14 20:00:00 15.6 10 Oeste 52 Oeste 0 1004.5 1.5 44
2019-11-14 19:00:00 15.9 30 Oeste 52 Oeste 0 1003.4 -0.6 53
2019-11-14 18:00:00 15.1 29 Oeste 51 Oeste 0 1003.1 -1.1 61
2019-11-14 17:00:00 17.1 24 Oeste 53 Oeste 0 1003 -1.4 49
2019-11-14 16:00:00 14.7 31 Oeste 57 Sudoeste 0 1004 -0.4 83
2019-11-14 15:00:00 15 39 Oeste 68 Oeste 0 1004.2 -1 82
2019-11-14 14:00:00 15.4 38 Oeste 68 Sudoeste 0 1004.4 -1.1 80
2019-11-14 13:00:00 15.2 41 Oeste 70 Oeste 0 1004.4 -1 77
2019-11-14 12:00:00 15.7 43 Sudoeste 72 Sudoeste 0 1005.2 -1.1 71
2019-11-14 11:00:00 15.7 37 Sudoeste 64 Sudoeste 0 1005.5 -1.5 66
2019-11-14 10:00:00 17 25 Oeste 44 Sudoeste 0 1005.4 -2.6 59
2019-11-14 09:00:00 16.5 21 Oeste 54 Oeste 0 1006.3 -2.5 66
2019-11-14 08:00:00 16.9 30 Oeste 49 Oeste 0 1007 -2.1 64
2019-11-14 07:00:00 13.3 5 Norte 9 Este 0 1008 -2.7 75
2019-11-14 06:00:00 13 2 Norte 6 Noroeste 0 1008.8 -2.9 77
2019-11-14 05:00:00 13.6 0 Calma 8 Norte 0 1009.1 -3.1 78
2019-11-14 04:00:00 13.5 0 Calma 6 Noroeste 0 1010.7 -2.3 83
2019-11-14 03:00:00 14.5 0 Calma 10 Norte 0 1011.7 -1.6 82
2019-11-14 02:00:00 14.2 0 Calma 5 Nordeste 0 1012.2 -1.3 83
2019-11-14 01:00:00 15.2 3 Norte 10 Oeste 0 1013 -0.3 81
2019-11-14 00:00:00 14.9 2 Norte 7 Noroeste 0 1013.3 0.8 78
2019-11-13 23:00:00 15.3 4 Oeste 8 Oeste 0 1013.5 1.2 76
2019-11-13 22:00:00 15.9 0 Calma 8 Este 0 1013.3 1.9 70
2019-11-13 21:00:00 16.1 2 Este 10 Este 0 1012.5 2.2 72
2019-11-13 20:00:00 16.4 4 Nordeste 10 Noroeste 0 1012.3 3.2 77
2019-11-13 19:00:00 17.1 4 Norte 29 Oeste 0 1011.4 2.4 75
2019-11-13 18:00:00 17.6 18 Oeste 34 Oeste 0 1010.3 1.5 72
2019-11-13 17:00:00 19.9 17 Oeste 41 Oeste 0 1009.1 0.9 64
2019-11-13 16:00:00 17.4 21 Oeste 43 Oeste 0 1009 -0.2 79
2019-11-13 15:00:00 16.8 30 Oeste 52 Oeste 0 1008.8 -0.2 81
2019-11-13 14:00:00 17.4 27 Oeste 62 Oeste 0 1008.2 -0.1 76
2019-11-13 13:00:00 17.2 39 Oeste 72 Oeste 0 1009.2 -0.2 73
2019-11-13 12:00:00 19.2 29 Oeste 49 Oeste 0 1009 -0.3 61
2019-11-13 11:00:00 21.5 0 Calma 35 Oeste 0 1008.3 -1.7 50
2019-11-13 10:00:00 17.2 18 Sudoeste 44 Sudoeste 0 1009.4 -0.3 67
2019-11-13 09:00:00 18 0 Calma 30 Noroeste 0 1009.3 -0.8 61
2019-11-13 08:00:00 14.5 3 Nordeste 10 Nordeste 0 1010 -0.3 61
2019-11-13 07:00:00 15.4 4 Norte 14 Nordeste 0 1009.7 -1.6 56
2019-11-13 06:00:00 14.2 0 Calma 14 Nordeste 0 1010.1 -1.7 59
2019-11-13 05:00:00 13.7 3 Norte 8 Este 0 1010.3 -1.9 62
2019-11-13 04:00:00 14.1 5 Norte 9 Norte 0 1011.3 -1.9 60
2019-11-13 03:00:00 14.5 0 Calma 16 Norte 0 1011.8 -1.7 60
2019-11-13 02:00:00 14.7 4 Nordeste 9 Nordeste 0 1012.2 -1.5 59
2019-11-13 01:00:00 14.6 3 Nordeste 9 Noroeste 0 1013.2 -0.2 70
2019-11-13 00:00:00 14.6 4 Noroeste 9 Oeste 0 1013.5 0.7 67
2019-11-12 23:00:00 13.7 2 Norte 6 Oeste 0 1013.7 1.3 66
2019-11-12 22:00:00 14.8 2 Noroeste 8 Nordeste 0 1013.4 0.9 67
2019-11-12 21:00:00 15.2 0 Calma 13 Este 0 1012.8 0.9 62
2019-11-12 20:00:00 15.8 7 Este 17 Nordeste 0 1012.4 1.4 64
2019-11-12 19:00:00 16.4 3 Nordeste 8 Nordeste 0 1012.5 2.4 62
2019-11-12 18:00:00 16.7 4 Este 9 Sudeste 0 1011.9 0.4 60
2019-11-12 17:00:00 18.3 4 Sudeste 6 Sudeste 0 1011 -1.1 51
2019-11-12 16:00:00 20.5 2 Sur 14 Sudoeste 0 1010.1 -2.7 49
2019-11-12 15:00:00 17.7 9 Sudoeste 15 Sudoeste 0 1011.5 -2.1 60
2019-11-12 14:00:00 17.8 8 Oeste 15 Oeste 0 1012.1 -0.9 57
2019-11-12 13:00:00 18.9 5 Sudoeste 12 Sudoeste 0 1012.8 -1.1 51
2019-11-12 12:00:00 17.8 6 Oeste 10 Sudoeste 0 1013.6 0.6 56
2019-11-12 11:00:00 19.6 0 Calma -- -- -- 1013 -0.5 55
2019-11-12 10:00:00 17 0 Calma 6 Sur 0 1013.9 0.4 60
2019-11-12 09:00:00 17.3 2 Sudoeste 14 Noroeste 0 1013 -0.8 59
2019-11-12 08:00:00 15 5 Norte 15 Nordeste 0 1013.5 0.3 57
2019-11-12 07:00:00 13.2 0 Calma 9 Norte 0 1013.5 -0.3 69
2019-11-12 06:00:00 13.3 3 Norte 13 Sudoeste 0 1013.8 -0.4 71
2019-11-12 05:00:00 15 2 Nordeste 12 Este 0 1013.2 -1 53
2019-11-12 04:00:00 14.1 9 Este 17 Este 0 1013.8 -0.9 54
2019-11-12 03:00:00 14.1 7 Este 16 Este 0 1014.2 -1 53
2019-11-12 02:00:00 12.7 3 Norte 8 Norte 0 1014.2 -0.8 54
2019-11-12 01:00:00 13.5 2 Norte 8 Norte 0 1014.7 0 45
2019-11-12 00:00:00 13.3 3 Nordeste 8 Norte 0 1015.2 0.9 47
2019-11-11 23:00:00 13.4 2 Norte 8 Este 0 1015 0.7 46
2019-11-11 22:00:00 14.7 0 Calma 6 Oeste 0 1014.7 0.8 45
2019-11-11 21:00:00 14.7 2 Noroeste 13 Oeste 0 1014.3 1.1 51
2019-11-11 20:00:00 14.8 0 Calma 9 Oeste 0 1014.3 1.3 45
2019-11-11 19:00:00 15 3 Oeste 9 Oeste 0 1013.9 0.8 49
2019-11-11 18:00:00 16.5 3 Este 9 Nordeste 0 1013.2 -0.1 40
2019-11-11 17:00:00 17.1 3 Nordeste 13 Este 0 1013 -0.8 42
2019-11-11 16:00:00 16.7 5 Nordeste 12 Nordeste 0 1013.1 -1.7 48
2019-11-11 15:00:00 16.2 0 Calma 11 Oeste 0 1013.3 -2.7 56
2019-11-11 14:00:00 16.1 6 Oeste 13 Oeste 0 1013.8 -3.2 49
2019-11-11 13:00:00 15.9 7 Sudoeste 13 Sudoeste 0 1014.8 -2.6 55
2019-11-11 12:00:00 15.3 7 Sudoeste 12 Sudoeste 0 1016 -1.7 60
2019-11-11 11:00:00 15.4 4 Oeste 8 Oeste 0 1017 -0.8 54
2019-11-11 10:00:00 16.1 0 Calma 8 Norte 0 1017.4 0 42
2019-11-11 09:00:00 14.8 0 Calma 10 Oeste 0 1017.7 0.5 40
2019-11-11 08:00:00 14.4 0 Calma 18 Oeste 0 1017.8 1 40
2019-11-11 07:00:00 14.8 7 Oeste 19 Oeste 0 1017.4 1.3 39
2019-11-11 06:00:00 15.2 8 Norte 21 Norte 0 1017.2 -0.6 39
2019-11-11 05:00:00 15.3 9 Norte 34 Norte 0 1016.8 -0.6 38
2019-11-11 04:00:00 15.3 12 Norte 33 Nordeste 0 1016.1 -0.6 40
2019-11-11 03:00:00 16.1 10 Nordeste 39 Este 0 1017.8 1.6 39
2019-11-11 02:00:00 16.2 10 Nordeste 24 Este 0 1017.4 1.4 39
2019-11-11 01:00:00 16 5 Nordeste 30 Norte 0 1016.7 0.3 48
2019-11-11 00:00:00 16.4 10 Oeste 37 Norte 0 1016.2 0.1 39